Time;durP1;ratioP1;P1;durP2;ratioP2;P2;SDS_P1;SDS_P2;PMS_P1;PMS_P2;Temp;Humidity;BMP_temperature;BMP_pressure;BME280_temperature;BME280_humidity;BME280_pressure;Samples;Min_cycle;Max_cycle;Signal;HPM_P1;HPM_P2
2021/10/20 00:01:36;;;;;;;6.10;5.10;;;16.20;61.20;;;;;;5052280;28;20927;-46
2021/10/20 00:04:05;;;;;;;6.50;5.90;;;16.20;61.40;;;;;;5051872;28;20366;-47
2021/10/20 00:06:31;;;;;;;5.63;5.03;;;16.30;61.60;;;;;;5053024;28;20659;-49
2021/10/20 00:08:57;;;;;;;7.00;5.50;;;16.20;61.10;;;;;;5052210;28;20445;-46
2021/10/20 00:11:23;;;;;;;7.37;5.23;;;16.00;62.00;;;;;;5052589;28;20931;-46
2021/10/20 00:13:48;;;;;;;6.40;5.10;;;15.80;62.30;;;;;;5051818;28;20193;-48
2021/10/20 00:16:16;;;;;;;5.40;4.90;;;15.50;63.20;;;;;;5049713;28;20192;-48
2021/10/20 00:18:47;;;;;;;5.40;4.90;;;15.50;63.90;;;;;;5050599;28;20290;-46
2021/10/20 00:21:14;;;;;;;5.50;4.90;;;15.50;64.20;;;;;;5051634;28;20505;-49
2021/10/20 00:23:39;;;;;;;6.10;5.50;;;15.30;63.10;;;;;;5052984;28;20491;-47
2021/10/20 00:26:05;;;;;;;7.77;5.50;;;15.40;64.10;;;;;;5040789;28;20435;-48
2021/10/20 00:28:31;;;;;;;6.10;4.77;;;15.50;63.20;;;;;;5052080;28;20189;-47
2021/10/20 00:30:56;;;;;;;6.23;4.47;;;15.30;63.70;;;;;;5051902;28;20241;-46
2021/10/20 00:33:22;;;;;;;7.37;5.20;;;15.30;63.20;;;;;;5052359;28;20212;-46
2021/10/20 00:35:47;;;;;;;6.70;5.37;;;15.30;63.90;;;;;;5051770;28;20242;-46
2021/10/20 00:38:13;;;;;;;5.53;4.40;;;15.50;63.30;;;;;;5052173;28;20655;-47
2021/10/20 00:40:39;;;;;;;4.80;4.33;;;15.30;64.00;;;;;;5052374;28;20200;-46
2021/10/20 00:43:04;;;;;;;5.20;4.70;;;15.40;63.90;;;;;;5051674;28;20235;-46
2021/10/20 00:45:30;;;;;;;6.00;4.93;;;15.50;62.90;;;;;;5047374;28;20468;-50
2021/10/20 00:47:56;;;;;;;7.67;4.53;;;15.30;63.30;;;;;;5050150;28;20343;-45
2021/10/20 00:50:21;;;;;;;5.20;4.70;;;15.40;63.00;;;;;;5047450;28;20263;-51
2021/10/20 00:52:47;;;;;;;9.00;4.47;;;15.50;62.70;;;;;;5043258;28;20205;-47
2021/10/20 00:55:13;;;;;;;5.50;5.00;;;15.50;62.90;;;;;;5045731;28;20265;-47
2021/10/20 00:57:41;;;;;;;5.20;4.80;;;15.50;62.70;;;;;;5041626;28;20287;-46
2021/10/20 01:00:09;;;;;;;5.63;4.47;;;15.50;62.00;;;;;;5049296;28;20451;-47
2021/10/20 01:02:36;;;;;;;8.70;4.80;;;15.50;63.00;;;;;;5048181;28;20497;-47
2021/10/20 01:05:03;;;;;;;4.53;4.13;;;15.60;62.50;;;;;;5050615;28;20864;-49
2021/10/20 01:07:28;;;;;;;6.00;5.30;;;15.80;61.40;;;;;;5050895;28;20443;-47
2021/10/20 01:09:54;;;;;;;4.97;4.47;;;15.80;61.10;;;;;;5051042;28;20441;-49
2021/10/20 01:12:22;;;;;;;4.90;4.50;;;15.90;61.20;;;;;;5051529;28;20216;-51
2021/10/20 01:14:47;;;;;;;5.50;4.70;;;15.50;61.50;;;;;;5049728;28;20197;-47
2021/10/20 01:17:13;;;;;;;4.90;4.47;;;15.50;61.90;;;;;;5051487;28;20427;-48
2021/10/20 01:19:42;;;;;;;5.60;4.73;;;15.30;62.30;;;;;;5045804;28;20191;-47
2021/10/20 01:22:09;;;;;;;5.27;4.77;;;15.20;63.20;;;;;;5051370;28;20224;-49
2021/10/20 01:24:35;;;;;;;4.33;3.93;;;15.40;62.80;;;;;;5050359;28;20493;-47
2021/10/20 01:27:00;;;;;;;4.77;4.37;;;15.40;62.30;;;;;;5049816;28;20958;-48
2021/10/20 01:29:27;;;;;;;6.03;5.10;;;15.50;62.30;;;;;;5049935;28;20185;-47
2021/10/20 01:31:57;;;;;;;4.80;4.40;;;15.70;62.30;;;;;;5033351;28;20562;-47
2021/10/20 01:34:23;;;;;;;5.73;4.20;;;15.60;61.50;;;;;;5046473;28;21317;-46
2021/10/20 01:36:51;;;;;;;5.00;4.60;;;15.70;61.00;;;;;;5051439;28;20435;-49
2021/10/20 01:39:17;;;;;;;5.60;5.10;;;15.50;61.40;;;;;;5048980;28;20454;-47
2021/10/20 01:41:45;;;;;;;5.40;4.13;;;15.20;62.00;;;;;;5048696;28;20431;-48
2021/10/20 01:44:11;;;;;;;6.03;4.33;;;15.20;62.80;;;;;;5049759;28;20478;-48
2021/10/20 01:46:37;;;;;;;5.20;4.27;;;15.00;63.20;;;;;;5049655;28;20431;-47
2021/10/20 01:49:02;;;;;;;6.23;4.53;;;14.70;64.10;;;;;;5049616;28;21032;-47
2021/10/20 01:51:28;;;;;;;4.83;4.43;;;14.50;65.00;;;;;;5049321;28;20606;-47
2021/10/20 01:53:54;;;;;;;5.50;4.40;;;14.40;65.40;;;;;;5050397;28;20192;-47
2021/10/20 01:56:21;;;;;;;4.87;4.37;;;14.20;66.00;;;;;;5049191;28;20246;-50
2021/10/20 01:58:46;;;;;;;6.83;4.83;;;14.10;66.60;;;;;;5050022;28;20453;-46
2021/10/20 02:01:12;;;;;;;6.80;5.20;;;14.20;66.30;;;;;;5048605;28;20435;-51
2021/10/20 02:03:39;;;;;;;6.83;6.00;;;14.00;66.60;;;;;;5049121;28;20622;-48
2021/10/20 02:06:09;;;;;;;8.03;6.00;;;13.90;67.00;;;;;;5048147;28;20225;-47
2021/10/20 02:08:36;;;;;;;6.50;4.40;;;13.90;67.20;;;;;;5045959;28;20447;-49
2021/10/20 02:11:01;;;;;;;4.97;4.43;;;14.00;66.60;;;;;;5049209;28;20582;-50
2021/10/20 02:13:27;;;;;;;5.00;4.10;;;13.90;67.00;;;;;;5047645;28;20524;-50
2021/10/20 02:15:53;;;;;;;5.20;4.70;;;13.70;67.30;;;;;;5049206;28;20342;-47
2021/10/20 02:18:19;;;;;;;5.70;4.77;;;13.70;67.30;;;;;;5049180;28;20192;-48
2021/10/20 02:20:44;;;;;;;7.23;4.50;;;13.40;67.70;;;;;;5048553;28;20244;-49
2021/10/20 02:23:11;;;;;;;5.90;4.37;;;13.30;68.50;;;;;;5049597;28;20738;-49
2021/10/20 02:25:36;;;;;;;6.70;5.27;;;13.10;69.20;;;;;;5048879;28;20189;-48
2021/10/20 02:28:02;;;;;;;4.53;3.80;;;13.10;69.40;;;;;;5045862;28;20450;-51
2021/10/20 02:30:27;;;;;;;5.43;4.90;;;13.00;69.40;;;;;;5049323;28;20282;-50
2021/10/20 02:32:54;;;;;;;7.33;4.60;;;12.80;69.50;;;;;;5048838;28;20185;-47
2021/10/20 02:35:20;;;;;;;5.83;4.63;;;12.90;70.50;;;;;;5049575;28;20188;-51
2021/10/20 02:37:46;;;;;;;4.27;3.87;;;13.10;68.90;;;;;;5046266;28;20446;-48
2021/10/20 02:40:13;;;;;;;5.60;4.63;;;13.10;69.10;;;;;;5051161;28;20214;-46
2021/10/20 02:42:39;;;;;;;5.03;4.53;;;12.90;69.80;;;;;;5053605;28;20467;-47
2021/10/20 02:45:07;;;;;;;4.53;4.17;;;13.00;69.20;;;;;;5053637;28;20871;-46
2021/10/20 02:47:33;;;;;;;5.23;4.70;;;13.00;69.50;;;;;;5052793;28;20509;-51
2021/10/20 02:49:58;;;;;;;5.60;4.33;;;13.00;69.40;;;;;;5052801;28;20550;-51
2021/10/20 02:52:24;;;;;;;5.20;4.70;;;13.20;68.70;;;;;;5052618;28;20197;-46
2021/10/20 02:54:50;;;;;;;5.23;4.80;;;13.20;68.40;;;;;;5053233;28;20203;-48
2021/10/20 02:57:16;;;;;;;5.77;4.27;;;13.20;67.90;;;;;;5053516;28;20268;-50
2021/10/20 02:59:42;;;;;;;5.90;4.53;;;13.10;68.00;;;;;;5047917;28;20644;-49
2021/10/20 03:02:08;;;;;;;5.40;4.67;;;13.20;67.70;;;;;;5053263;28;20224;-49
2021/10/20 03:04:33;;;;;;;5.27;4.77;;;13.30;67.60;;;;;;5051623;28;20232;-50
2021/10/20 03:06:59;;;;;;;5.80;4.10;;;13.20;67.50;;;;;;5053196;28;20458;-51
2021/10/20 03:09:24;;;;;;;5.00;4.60;;;13.40;66.50;;;;;;5049508;28;20189;-48
2021/10/20 03:11:50;;;;;;;5.10;4.33;;;13.60;66.00;;;;;;5053453;28;20549;-49
2021/10/20 03:14:16;;;;;;;5.60;4.33;;;13.70;65.50;;;;;;5053049;28;20661;-47
2021/10/20 03:16:42;;;;;;;4.27;3.90;;;13.60;65.30;;;;;;5053845;28;20193;-49
2021/10/20 03:19:08;;;;;;;4.90;3.93;;;13.60;64.90;;;;;;5052748;28;20223;-50
2021/10/20 03:21:33;;;;;;;6.33;4.10;;;13.10;66.80;;;;;;5051300;28;20947;-46
2021/10/20 03:23:59;;;;;;;4.57;4.17;;;13.00;68.10;;;;;;5053291;28;20231;-48
2021/10/20 03:26:25;;;;;;;4.80;4.30;;;12.90;67.80;;;;;;5053345;28;20706;-47
2021/10/20 03:28:50;;;;;;;5.00;4.50;;;13.20;67.20;;;;;;5053997;28;20192;-49
2021/10/20 03:31:17;;;;;;;3.90;3.60;;;13.30;66.20;;;;;;5050845;28;20189;-49
2021/10/20 03:33:43;;;;;;;5.77;5.20;;;13.40;65.90;;;;;;5053568;28;20208;-51
2021/10/20 03:36:09;;;;;;;5.23;4.70;;;13.60;65.80;;;;;;5052601;28;20549;-49
2021/10/20 03:38:35;;;;;;;5.27;4.13;;;13.70;65.10;;;;;;5052201;28;20578;-49
2021/10/20 03:41:00;;;;;;;4.70;4.17;;;13.50;64.90;;;;;;5052241;28;20193;-51
2021/10/20 03:43:26;;;;;;;6.17;5.53;;;13.30;65.80;;;;;;5052950;28;20593;-51
2021/10/20 03:45:52;;;;;;;4.73;4.23;;;13.00;66.50;;;;;;5051966;28;20232;-46
2021/10/20 03:48:18;;;;;;;4.87;4.47;;;12.70;68.00;;;;;;5045234;28;20439;-48
2021/10/20 03:50:43;;;;;;;5.20;3.97;;;12.40;69.10;;;;;;5051920;28;20196;-47
2021/10/20 03:53:09;;;;;;;4.20;3.80;;;12.20;70.20;;;;;;5053073;28;20704;-49
2021/10/20 03:55:34;;;;;;;5.83;4.40;;;12.10;71.10;;;;;;5052581;28;20271;-46
2021/10/20 03:58:01;;;;;;;4.60;4.20;;;12.20;70.60;;;;;;5052441;28;20195;-50
2021/10/20 04:00:27;;;;;;;4.47;4.03;;;12.30;69.70;;;;;;5050661;28;20220;-46
2021/10/20 04:02:53;;;;;;;7.40;4.40;;;12.30;69.60;;;;;;5044833;28;21072;-48
2021/10/20 04:05:20;;;;;;;4.43;4.03;;;12.10;70.20;;;;;;5052407;28;20715;-46
2021/10/20 04:07:47;;;;;;;4.83;4.27;;;12.00;71.20;;;;;;5047909;28;20442;-48
2021/10/20 04:10:25;;;;;;;5.80;4.83;;;11.80;72.00;;;;;;5049328;28;20910;-48
2021/10/20 04:12:52;;;;;;;5.00;4.47;;;11.70;72.60;;;;;;5052087;28;20443;-46
2021/10/20 04:15:20;;;;;;;6.63;4.90;;;11.60;72.80;;;;;;5051902;28;20438;-48
2021/10/20 04:17:45;;;;;;;4.73;3.83;;;11.70;72.70;;;;;;5052302;28;20442;-46
2021/10/20 04:20:13;;;;;;;4.93;4.40;;;11.90;71.70;;;;;;5050749;28;20430;-49
2021/10/20 04:22:39;;;;;;;5.10;4.33;;;12.20;71.20;;;;;;5051613;28;20212;-48
2021/10/20 04:25:06;;;;;;;5.10;4.57;;;12.60;69.80;;;;;;5050251;28;20434;-47
2021/10/20 04:27:32;;;;;;;5.33;4.40;;;12.90;68.20;;;;;;5050094;28;20865;-46
2021/10/20 04:29:59;;;;;;;4.40;3.87;;;13.10;67.00;;;;;;5051361;28;20435;-45
2021/10/20 04:32:25;;;;;;;9.93;4.70;;;13.30;66.60;;;;;;5051905;28;20254;-47
2021/10/20 04:34:51;;;;;;;4.93;4.30;;;13.40;65.70;;;;;;5051844;28;20431;-49
2021/10/20 04:37:23;;;;;;;5.57;4.83;;;13.40;65.40;;;;;;5052029;28;20439;-49
2021/10/20 04:39:50;;;;;;;4.63;4.23;;;13.10;65.30;;;;;;5050995;28;20342;-46
2021/10/20 04:42:15;;;;;;;5.03;4.37;;;12.90;66.60;;;;;;5052149;28;20431;-47
2021/10/20 04:44:41;;;;;;;4.90;4.20;;;12.90;67.50;;;;;;5051360;28;20496;-47
2021/10/20 04:47:07;;;;;;;5.00;4.20;;;13.10;66.30;;;;;;5051290;28;20200;-47
2021/10/20 04:49:32;;;;;;;5.93;4.00;;;13.10;65.50;;;;;;5051186;28;20229;-46
2021/10/20 04:51:58;;;;;;;4.90;4.00;;;13.20;65.50;;;;;;5052366;28;20682;-46
2021/10/20 04:54:23;;;;;;;5.80;4.47;;;13.10;65.50;;;;;;5049481;28;20193;-50
2021/10/20 04:56:49;;;;;;;4.40;3.97;;;12.60;67.20;;;;;;5051843;28;20193;-46
2021/10/20 04:59:14;;;;;;;5.47;4.27;;;12.60;67.90;;;;;;5050608;28;20636;-46
2021/10/20 05:01:40;;;;;;;4.27;3.87;;;12.70;67.80;;;;;;5050357;28;20189;-47
2021/10/20 05:04:05;;;;;;;4.87;4.30;;;12.80;67.50;;;;;;5050894;28;20220;-48
2021/10/20 05:06:31;;;;;;;7.07;4.43;;;12.80;67.40;;;;;;5050801;28;20189;-47
2021/10/20 05:08:57;;;;;;;4.27;3.87;;;12.80;67.10;;;;;;5049100;28;20655;-46
2021/10/20 05:11:22;;;;;;;4.63;4.23;;;13.00;66.40;;;;;;5050858;28;20280;-46
2021/10/20 05:13:48;;;;;;;7.03;4.90;;;13.00;66.10;;;;;;5051126;28;20683;-46
2021/10/20 05:16:13;;;;;;;7.67;4.10;;;13.10;66.00;;;;;;5050253;28;20275;-46
2021/10/20 05:18:39;;;;;;;7.00;4.70;;;13.30;67.30;;;;;;5051048;28;20255;-48
2021/10/20 05:21:04;;;;;;;5.07;4.53;;;13.50;66.50;;;;;;5049312;28;20614;-46
2021/10/20 05:23:30;;;;;;;4.70;4.20;;;13.50;65.10;;;;;;5046100;28;20235;-47
2021/10/20 05:25:56;;;;;;;4.77;4.27;;;13.20;66.60;;;;;;5047424;28;20228;-47
2021/10/20 05:28:21;;;;;;;4.53;4.00;;;13.00;66.80;;;;;;5043003;28;20203;-50
2021/10/20 05:30:47;;;;;;;5.53;4.33;;;13.00;66.10;;;;;;5041125;28;20196;-47
2021/10/20 05:33:13;;;;;;;5.00;4.50;;;13.10;66.00;;;;;;5040940;28;20283;-45
2021/10/20 05:35:39;;;;;;;5.17;4.00;;;13.30;65.80;;;;;;5043847;28;20203;-46
2021/10/20 05:38:04;;;;;;;5.73;4.60;;;13.60;64.90;;;;;;5049063;28;20247;-45
2021/10/20 05:40:30;;;;;;;4.70;4.27;;;13.70;64.00;;;;;;5047129;28;20837;-46
2021/10/20 05:42:56;;;;;;;4.60;4.20;;;13.80;64.40;;;;;;5049776;28;20223;-46
2021/10/20 05:45:21;;;;;;;4.77;4.30;;;14.00;63.00;;;;;;5050457;28;20195;-45
2021/10/20 05:47:47;;;;;;;4.60;4.20;;;14.10;61.90;;;;;;5039001;28;20243;-47
2021/10/20 05:50:14;;;;;;;5.60;3.80;;;14.10;62.20;;;;;;5044573;28;20224;-49
2021/10/20 05:52:39;;;;;;;5.40;4.20;;;14.20;61.90;;;;;;5045234;28;20201;-45
2021/10/20 05:55:05;;;;;;;4.87;4.47;;;14.30;61.20;;;;;;5042962;28;20490;-45
2021/10/20 05:57:35;;;;;;;4.50;4.10;;;14.30;60.90;;;;;;5047507;28;20195;-47
2021/10/20 06:00:00;;;;;;;5.50;4.53;;;14.00;61.50;;;;;;5055662;28;20189;-47
2021/10/20 06:02:26;;;;;;;4.20;3.80;;;14.00;62.00;;;;;;5044909;28;20569;-49
2021/10/20 06:04:51;;;;;;;4.67;3.83;;;13.90;61.30;;;;;;5045447;28;20205;-47
2021/10/20 06:07:17;;;;;;;4.23;3.40;;;14.00;61.10;;;;;;5047628;28;20214;-47
2021/10/20 06:09:42;;;;;;;4.20;3.80;;;13.90;61.40;;;;;;5048097;28;20623;-46
2021/10/20 06:12:08;;;;;;;7.47;4.20;;;13.90;61.40;;;;;;5048743;28;20200;-46
2021/10/20 06:14:34;;;;;;;5.20;4.23;;;13.90;61.40;;;;;;5046671;28;20729;-48
2021/10/20 06:16:59;;;;;;;5.30;4.43;;;13.70;61.90;;;;;;5039296;28;20196;-45
2021/10/20 06:19:25;;;;;;;6.20;4.20;;;13.90;61.60;;;;;;5044696;28;20189;-45
2021/10/20 06:21:52;;;;;;;6.57;5.17;;;14.10;60.90;;;;;;5044759;28;20246;-46
2021/10/20 06:24:17;;;;;;;4.43;4.03;;;14.10;60.90;;;;;;5043424;28;20672;-45
2021/10/20 06:26:43;;;;;;;7.47;4.80;;;14.10;60.50;;;;;;5045044;28;20439;-46
2021/10/20 06:29:09;;;;;;;5.30;4.80;;;14.20;60.40;;;;;;5043758;28;20220;-49
2021/10/20 06:31:34;;;;;;;4.40;4.00;;;14.40;60.30;;;;;;5042932;28;20214;-45
2021/10/20 06:34:00;;;;;;;4.40;3.93;;;14.30;60.30;;;;;;5035876;28;20188;-46
2021/10/20 06:36:33;;;;;;;4.37;3.97;;;14.30;60.20;;;;;;5044759;28;20951;-51
2021/10/20 06:39:00;;;;;;;5.20;4.57;;;14.30;60.20;;;;;;5044876;28;20207;-47
2021/10/20 06:41:27;;;;;;;4.13;3.73;;;14.70;60.40;;;;;;5043758;28;20807;-46
2021/10/20 06:43:52;;;;;;;5.83;4.73;;;15.00;59.40;;;;;;5047592;28;21270;-46
2021/10/20 06:46:18;;;;;;;5.50;5.00;;;15.40;59.00;;;;;;5045305;28;20518;-45
2021/10/20 06:48:44;;;;;;;7.10;4.80;;;15.70;57.30;;;;;;5041394;28;20237;-46
2021/10/20 06:51:10;;;;;;;5.73;5.23;;;16.00;57.00;;;;;;5037282;28;20641;-46
2021/10/20 06:53:36;;;;;;;6.27;4.30;;;16.20;56.30;;;;;;5051127;28;20199;-45
2021/10/20 06:56:04;;;;;;;4.20;3.80;;;16.30;56.50;;;;;;5037169;28;20451;-45
2021/10/20 06:58:30;;;;;;;4.60;4.20;;;16.60;55.80;;;;;;5058291;28;20504;-45
2021/10/20 07:00:55;;;;;;;5.20;4.70;;;16.80;55.30;;;;;;5046743;28;20431;-47
2021/10/20 07:03:21;;;;;;;4.70;4.30;;;16.90;55.00;;;;;;5035477;28;20256;-46
2021/10/20 07:05:47;;;;;;;7.00;4.80;;;17.00;54.90;;;;;;5049474;28;20675;-46
2021/10/20 07:08:12;;;;;;;5.33;4.17;;;17.10;54.70;;;;;;5045901;28;20264;-46
2021/10/20 07:10:38;;;;;;;4.77;4.30;;;17.10;54.70;;;;;;5052277;28;20300;-48
2021/10/20 07:13:05;;;;;;;4.63;4.23;;;17.00;54.90;;;;;;5043005;28;20683;-46
2021/10/20 07:15:31;;;;;;;5.27;4.80;;;17.20;54.90;;;;;;5043656;28;20267;-46
2021/10/20 07:17:56;;;;;;;4.60;4.20;;;17.20;54.70;;;;;;5042022;28;20485;-46
2021/10/20 07:20:22;;;;;;;4.97;4.47;;;17.20;53.80;;;;;;5052515;28;20478;-48
2021/10/20 07:22:48;;;;;;;5.10;4.70;;;17.30;54.60;;;;;;5046777;28;20207;-47
2021/10/20 07:25:15;;;;;;;4.90;4.50;;;17.40;54.00;;;;;;5042275;28;20283;-46
2021/10/20 07:27:41;;;;;;;6.37;4.80;;;17.50;54.20;;;;;;5053991;28;20434;-45
2021/10/20 07:30:09;;;;;;;4.93;4.53;;;17.60;53.80;;;;;;5040194;28;20451;-46
2021/10/20 07:32:37;;;;;;;5.30;4.80;;;17.60;53.80;;;;;;5040647;28;20803;-46
2021/10/20 07:35:03;;;;;;;4.57;4.17;;;17.60;53.90;;;;;;5048357;28;20437;-46
2021/10/20 07:37:29;;;;;;;6.10;4.67;;;17.80;53.90;;;;;;5051669;28;20431;-46
2021/10/20 07:39:54;;;;;;;8.53;4.73;;;17.80;53.60;;;;;;5049469;28;20458;-46
2021/10/20 07:42:20;;;;;;;5.47;4.97;;;17.60;54.40;;;;;;5047225;28;20220;-46
2021/10/20 07:44:48;;;;;;;5.00;4.50;;;17.80;54.50;;;;;;5050488;28;20235;-47
2021/10/20 07:47:15;;;;;;;5.43;4.90;;;18.00;54.00;;;;;;5049155;28;20201;-48
2021/10/20 07:49:41;;;;;;;5.53;5.03;;;17.90;53.80;;;;;;5049642;28;20466;-45
2021/10/20 07:52:06;;;;;;;8.17;5.80;;;17.90;54.20;;;;;;5049815;28;20431;-47
2021/10/20 07:54:32;;;;;;;13.80;5.03;;;18.00;54.30;;;;;;5050933;28;20716;-46
2021/10/20 07:56:58;;;;;;;4.93;4.50;;;17.90;54.20;;;;;;5048762;28;20196;-46
2021/10/20 07:59:24;;;;;;;4.50;4.10;;;17.90;54.40;;;;;;5048284;28;20741;-46
2021/10/20 08:01:50;;;;;;;4.30;3.90;;;18.00;54.20;;;;;;5045277;28;20439;-47
2021/10/20 08:04:16;;;;;;;4.70;4.30;;;18.20;54.30;;;;;;5049286;28;20232;-46
2021/10/20 08:06:41;;;;;;;9.17;5.10;;;18.40;54.10;;;;;;5051270;28;20526;-49
2021/10/20 08:09:07;;;;;;;4.70;4.20;;;18.50;53.60;;;;;;5048108;28;20211;-47
2021/10/20 08:11:33;;;;;;;5.73;4.10;;;18.50;52.90;;;;;;5051143;28;20247;-46
2021/10/20 08:14:00;;;;;;;4.97;4.47;;;18.20;53.50;;;;;;5051029;28;20258;-48
2021/10/20 08:16:26;;;;;;;4.30;3.90;;;18.50;53.30;;;;;;5043253;28;20181;-46
2021/10/20 08:18:51;;;;;;;4.60;4.10;;;18.60;51.30;;;;;;5051537;28;20435;-46
2021/10/20 08:21:17;;;;;;;4.33;3.90;;;18.70;50.50;;;;;;5032133;28;20203;-46
2021/10/20 08:23:43;;;;;;;5.70;4.23;;;18.90;50.30;;;;;;5049300;28;20236;-49
2021/10/20 08:26:09;;;;;;;5.83;4.20;;;19.20;50.40;;;;;;5051991;28;20227;-47
2021/10/20 08:28:35;;;;;;;4.90;4.40;;;19.30;50.40;;;;;;5049705;28;20205;-48
2021/10/20 08:31:01;;;;;;;5.13;4.63;;;19.20;50.90;;;;;;5051480;28;20812;-46
2021/10/20 08:33:27;;;;;;;5.50;4.50;;;19.50;51.00;;;;;;5048876;28;20200;-47
2021/10/20 08:35:52;;;;;;;3.80;3.50;;;19.70;49.90;;;;;;5042773;28;20941;-46
2021/10/20 08:38:18;;;;;;;6.00;4.67;;;19.80;48.80;;;;;;5050390;28;20235;-46
2021/10/20 08:40:47;;;;;;;5.13;4.60;;;19.90;48.70;;;;;;5051295;28;20203;-47
2021/10/20 08:43:17;;;;;;;5.57;4.60;;;20.00;50.90;;;;;;5047424;28;20317;-45
2021/10/20 08:45:45;;;;;;;5.17;4.67;;;20.20;50.00;;;;;;5039727;28;20508;-47
2021/10/20 08:48:13;;;;;;;7.20;3.73;;;20.20;49.60;;;;;;5050789;28;20944;-47
2021/10/20 08:50:39;;;;;;;6.37;4.40;;;20.40;49.90;;;;;;5048539;28;20473;-46
2021/10/20 08:53:06;;;;;;;4.07;3.50;;;20.60;49.30;;;;;;5055762;28;20980;-46
2021/10/20 08:55:33;;;;;;;4.00;3.60;;;20.70;48.40;;;;;;5050221;28;21116;-46
2021/10/20 08:58:00;;;;;;;3.47;3.17;;;20.60;47.70;;;;;;5047003;28;20804;-46
2021/10/20 09:00:28;;;;;;;4.30;3.40;;;20.70;47.70;;;;;;5046405;28;20447;-45
2021/10/20 09:02:54;;;;;;;3.60;3.30;;;20.80;47.70;;;;;;5045181;28;20466;-48
2021/10/20 09:05:24;;;;;;;3.70;3.00;;;20.90;47.60;;;;;;5045871;28;20434;-46
2021/10/20 09:07:53;;;;;;;3.40;3.10;;;21.00;47.40;;;;;;5048327;28;20443;-45
2021/10/20 09:10:19;;;;;;;3.33;3.03;;;21.20;47.20;;;;;;5046414;28;20831;-49
2021/10/20 09:12:46;;;;;;;6.50;3.43;;;21.20;47.00;;;;;;5046494;28;21057;-44
2021/10/20 09:15:24;;;;;;;4.87;3.47;;;21.30;47.10;;;;;;5045734;28;20436;-45
2021/10/20 09:17:52;;;;;;;4.07;2.93;;;21.30;47.10;;;;;;5049576;28;20446;-46
2021/10/20 09:20:24;;;;;;;3.57;3.27;;;21.50;46.90;;;;;;5047204;28;20922;-45
2021/10/20 09:23:04;;;;;;;3.57;3.27;;;21.70;47.00;;;;;;5049484;28;20553;-45
2021/10/20 09:25:39;;;;;;;4.07;3.00;;;21.80;46.60;;;;;;5049050;28;21166;-44
2021/10/20 09:28:11;;;;;;;3.50;3.20;;;21.90;46.30;;;;;;5049800;28;20492;-52
2021/10/20 09:30:39;;;;;;;6.10;3.30;;;22.10;45.70;;;;;;5048540;28;20446;-45
2021/10/20 09:33:09;;;;;;;4.40;2.87;;;22.20;45.40;;;;;;5048690;28;20479;-45
2021/10/20 09:35:35;;;;;;;2.80;2.60;;;22.20;44.40;;;;;;5047965;28;20857;-45
2021/10/20 09:38:02;;;;;;;3.53;3.23;;;22.30;44.80;;;;;;5047064;28;20962;-47
2021/10/20 09:40:42;;;;;;;5.83;3.30;;;22.30;45.00;;;;;;5046168;28;20189;-45
2021/10/20 09:43:09;;;;;;;2.97;2.70;;;22.40;45.00;;;;;;5048654;28;20494;-46
2021/10/20 09:45:38;;;;;;;3.50;3.20;;;22.40;45.00;;;;;;5048238;28;20838;-45
2021/10/20 09:48:19;;;;;;;6.37;3.20;;;22.50;44.70;;;;;;5040783;28;20524;-45
2021/10/20 09:51:03;;;;;;;3.20;2.90;;;22.50;44.50;;;;;;5048924;28;20457;-46
2021/10/20 09:53:31;;;;;;;3.23;2.93;;;22.60;44.60;;;;;;5049130;28;21011;-47
2021/10/20 09:56:17;;;;;;;3.10;2.80;;;22.60;44.10;;;;;;5045781;28;20511;-48
2021/10/20 09:58:46;;;;;;;5.00;2.70;;;22.70;44.70;;;;;;5047625;28;20434;-44
2021/10/20 10:01:13;;;;;;;4.30;2.77;;;22.80;44.30;;;;;;5046414;28;20466;-45
2021/10/20 10:03:39;;;;;;;4.77;3.27;;;23.00;44.40;;;;;;5048070;28;20485;-48
2021/10/20 10:06:05;;;;;;;3.20;2.90;;;23.20;43.90;;;;;;5053037;28;20425;-45
2021/10/20 10:08:30;;;;;;;4.50;2.77;;;23.20;43.50;;;;;;5039127;28;20431;-45
2021/10/20 10:10:59;;;;;;;4.30;3.13;;;23.30;43.50;;;;;;5040783;28;20200;-46
2021/10/20 10:13:28;;;;;;;3.23;2.93;;;23.40;43.70;;;;;;5046004;28;20228;-45
2021/10/20 10:15:54;;;;;;;2.80;2.60;;;23.60;43.60;;;;;;5041508;28;20432;-48
2021/10/20 10:18:21;;;;;;;2.93;2.63;;;23.60;43.00;;;;;;5050579;28;20485;-45
2021/10/20 10:20:46;;;;;;;3.17;2.57;;;23.60;43.30;;;;;;5048445;28;20430;-45
2021/10/20 10:23:24;;;;;;;2.70;2.50;;;23.80;43.60;;;;;;5041470;28;20970;-47
2021/10/20 10:26:07;;;;;;;2.90;2.70;;;23.80;43.10;;;;;;5047582;28;20200;-46
2021/10/20 10:28:35;;;;;;;2.93;2.63;;;23.80;42.60;;;;;;5036972;28;20562;-45
2021/10/20 10:31:07;;;;;;;3.63;2.53;;;23.80;42.90;;;;;;5054098;28;20436;-45
2021/10/20 10:33:37;;;;;;;2.60;2.40;;;23.80;42.60;;;;;;5045825;28;20474;-46
2021/10/20 10:36:13;;;;;;;3.87;2.40;;;23.90;42.90;;;;;;5047506;28;20528;-46
2021/10/20 10:38:59;;;;;;;3.57;2.50;;;24.00;42.50;;;;;;5041590;28;20941;-46
2021/10/20 10:41:32;;;;;;;3.63;3.03;;;23.90;42.60;;;;;;5037417;28;20554;-50
2021/10/20 10:44:01;;;;;;;2.57;2.37;;;23.70;42.90;;;;;;5041477;28;20496;-45
2021/10/20 10:46:29;;;;;;;3.17;2.97;;;23.90;43.50;;;;;;5043645;28;20728;-45
2021/10/20 10:48:56;;;;;;;4.17;3.00;;;24.10;43.00;;;;;;5048843;28;20481;-45
2021/10/20 10:51:22;;;;;;;2.60;2.40;;;24.00;42.60;;;;;;5048374;28;20942;-46
2021/10/20 10:53:52;;;;;;;3.37;2.80;;;24.10;43.00;;;;;;5047803;28;20424;-45
2021/10/20 10:56:18;;;;;;;4.40;3.17;;;24.10;42.40;;;;;;5041907;28;20198;-46
2021/10/20 10:58:55;;;;;;;2.90;2.70;;;24.20;42.80;;;;;;5049741;28;20469;-46
2021/10/20 11:02:01;;;;;;;4.23;2.47;;;24.40;42.40;;;;;;5050430;28;20204;-45
2021/10/20 11:04:34;;;;;;;3.13;2.80;;;24.10;42.20;;;;;;4948829;28;20488;-46
2021/10/20 11:07:02;;;;;;;3.60;2.50;;;24.30;43.10;;;;;;4951258;29;20863;-45
2021/10/20 11:09:31;;;;;;;3.23;2.93;;;24.60;42.70;;;;;;5007095;28;20478;-51
2021/10/20 11:11:58;;;;;;;3.80;3.33;;;24.60;42.20;;;;;;5050027;28;20481;-51
2021/10/20 11:14:26;;;;;;;3.63;2.70;;;24.40;42.20;;;;;;5048006;28;20435;-46
2021/10/20 11:16:57;;;;;;;3.13;2.83;;;24.30;42.60;;;;;;5046832;28;20434;-48
2021/10/20 11:19:24;;;;;;;4.00;3.00;;;24.40;42.70;;;;;;5051071;28;20435;-46
2021/10/20 11:21:50;;;;;;;5.50;2.57;;;24.40;42.10;;;;;;5049020;28;20432;-47
2021/10/20 11:24:17;;;;;;;4.03;2.30;;;24.60;42.60;;;;;;5049364;28;20490;-49
2021/10/20 11:26:47;;;;;;;4.40;2.70;;;24.50;42.30;;;;;;5043038;28;21027;-48
2021/10/20 11:29:12;;;;;;;3.67;2.50;;;24.60;42.70;;;;;;5051883;28;20918;-49
2021/10/20 11:31:48;;;;;;;3.80;2.57;;;24.70;42.40;;;;;;5048724;28;20481;-51
2021/10/20 11:34:22;;;;;;;3.70;2.40;;;24.70;42.60;;;;;;5047559;28;20196;-47
2021/10/20 11:36:48;;;;;;;6.20;2.40;;;24.70;42.50;;;;;;5051462;28;20434;-49
2021/10/20 11:39:14;;;;;;;2.73;2.53;;;24.70;42.30;;;;;;5050003;28;20558;-48
2021/10/20 11:41:54;;;;;;;3.93;2.53;;;24.80;42.50;;;;;;5048252;28;20549;-48
2021/10/20 11:44:25;;;;;;;3.07;2.27;;;24.80;42.30;;;;;;5047779;28;20251;-46
2021/10/20 11:46:53;;;;;;;3.40;2.30;;;24.90;42.40;;;;;;5046724;28;20451;-50
2021/10/20 11:49:19;;;;;;;2.47;2.27;;;25.00;42.40;;;;;;5050353;28;20998;-49
2021/10/20 11:51:44;;;;;;;2.50;2.30;;;25.00;42.10;;;;;;5045662;28;20530;-48
2021/10/20 11:54:10;;;;;;;2.50;2.30;;;25.00;41.80;;;;;;5048733;28;20534;-51
2021/10/20 11:56:35;;;;;;;2.43;2.23;;;24.80;41.80;;;;;;5050647;28;20215;-50
2021/10/20 11:59:01;;;;;;;3.40;2.37;;;25.00;42.20;;;;;;5042059;28;20285;-51
2021/10/20 12:01:28;;;;;;;1.97;1.80;;;25.00;41.80;;;;;;5045866;28;20620;-51
2021/10/20 12:03:54;;;;;;;4.13;2.40;;;25.30;42.10;;;;;;5050180;28;20252;-48
2021/10/20 12:06:21;;;;;;;2.83;2.33;;;25.50;42.10;;;;;;5047899;28;20474;-51
2021/10/20 12:08:48;;;;;;;2.73;2.47;;;25.70;41.80;;;;;;5051431;28;20543;-50
2021/10/20 12:11:19;;;;;;;2.73;2.33;;;26.00;41.50;;;;;;5050473;28;20467;-50
2021/10/20 12:13:45;;;;;;;2.70;2.20;;;26.20;41.40;;;;;;5044876;28;20427;-48
2021/10/20 12:16:15;;;;;;;2.83;2.30;;;26.10;40.70;;;;;;5048595;28;20488;-48
2021/10/20 12:18:43;;;;;;;3.43;2.70;;;26.10;40.80;;;;;;5048542;28;20568;-52
2021/10/20 12:21:13;;;;;;;2.50;2.37;;;26.00;41.10;;;;;;5049110;28;20427;-50
2021/10/20 12:23:41;;;;;;;5.17;2.57;;;25.90;41.20;;;;;;5055819;28;20487;-49
2021/10/20 12:26:07;;;;;;;3.03;2.10;;;25.90;41.80;;;;;;5045491;28;20625;-49
2021/10/20 12:28:33;;;;;;;2.57;2.37;;;25.80;41.80;;;;;;5045987;28;20542;-48
2021/10/20 12:31:10;;;;;;;2.03;1.90;;;25.80;42.50;;;;;;5048437;28;21685;-48
2021/10/20 12:33:43;;;;;;;2.37;2.23;;;25.80;42.30;;;;;;5048497;28;20443;-52
2021/10/20 12:36:11;;;;;;;2.70;2.20;;;25.70;42.50;;;;;;5045871;28;20432;-50
2021/10/20 12:38:40;;;;;;;4.20;2.50;;;25.80;42.30;;;;;;5047419;28;20777;-52
2021/10/20 12:41:12;;;;;;;4.50;2.70;;;25.80;42.60;;;;;;5047971;28;20434;-48
2021/10/20 12:43:38;;;;;;;3.27;2.50;;;25.60;42.50;;;;;;5045083;28;20485;-51
2021/10/20 12:46:04;;;;;;;5.23;2.90;;;25.60;42.60;;;;;;5045456;28;20435;-50
2021/10/20 12:48:32;;;;;;;2.33;2.13;;;25.60;42.60;;;;;;5048703;28;20792;-48